createdAt,value
2023-03-13T00:01:20.436Z,-1.37
2023-03-13T00:03:49.156Z,-1.38
2023-03-13T00:06:19.904Z,-1.41
2023-03-13T00:08:48.378Z,-1.45
2023-03-13T00:11:18.168Z,-1.49
2023-03-13T00:13:46.880Z,-1.54
2023-03-13T00:16:19.928Z,-1.59
2023-03-13T00:18:49.099Z,-1.62
2023-03-13T00:21:17.935Z,-1.64
2023-03-13T00:23:55.171Z,-1.66
2023-03-13T00:26:24.712Z,-1.69
2023-03-13T00:28:54.472Z,-1.71
2023-03-13T00:31:24.248Z,-1.73
2023-03-13T00:33:54.315Z,-1.75
2023-03-13T00:36:24.221Z,-1.76
2023-03-13T00:38:53.560Z,-1.78
2023-03-13T00:41:22.835Z,-1.80
2023-03-13T00:43:55.371Z,-1.83
2023-03-13T00:46:24.759Z,-1.85
2023-03-13T00:48:54.294Z,-1.87
2023-03-13T00:51:24.127Z,-1.89
2023-03-13T00:53:52.883Z,-1.91
2023-03-13T00:56:25.176Z,-1.92
2023-03-13T00:58:54.106Z,-1.94
2023-03-13T01:01:24.142Z,-1.96
2023-03-13T01:03:53.953Z,-1.97
2023-03-13T01:06:23.609Z,-1.99
2023-03-13T01:08:52.765Z,-2.03
2023-03-13T01:11:22.712Z,-2.03
2023-03-13T01:13:56.437Z,-2.02
2023-03-13T01:16:28.989Z,-2.01
2023-03-13T01:19:01.061Z,-1.99
2023-03-13T01:21:30.414Z,-1.99
2023-03-13T01:23:59.422Z,-1.97
2023-03-13T01:26:36.690Z,-1.96
2023-03-13T01:29:07.108Z,-1.96
2023-03-13T01:31:36.148Z,-1.97
2023-03-13T01:34:09.072Z,-1.97
2023-03-13T01:36:44.144Z,-1.98
2023-03-13T01:39:13.026Z,-1.97
2023-03-13T01:41:42.518Z,-1.95
2023-03-13T01:44:31.724Z,-1.94
2023-03-13T01:47:00.246Z,-1.95
2023-03-13T01:49:58.426Z,-1.97
2023-03-13T01:52:42.166Z,-1.98
2023-03-13T01:55:22.742Z,-1.99
2023-03-13T01:57:53.876Z,-1.99
2023-03-13T02:00:25.288Z,-2.00
2023-03-13T02:02:55.406Z,-2.01
2023-03-13T02:05:25.253Z,-2.01
2023-03-13T02:07:55.408Z,-2.03
2023-03-13T02:10:23.999Z,-2.05
2023-03-13T02:12:52.710Z,-2.07
2023-03-13T02:15:23.823Z,-2.09
2023-03-13T02:17:52.811Z,-2.12
2023-03-13T02:20:24.067Z,-2.14
2023-03-13T02:23:02.375Z,-2.13
2023-03-13T02:25:47.575Z,-2.12
2023-03-13T02:28:26.051Z,-2.12
2023-03-13T02:30:59.093Z,-2.14
2023-03-13T02:33:29.265Z,-2.16
2023-03-13T02:35:59.749Z,-2.17
2023-03-13T02:38:29.696Z,-2.19
2023-03-13T02:40:58.408Z,-2.23
2023-03-13T02:43:33.319Z,-2.26
2023-03-13T02:46:03.358Z,-2.26
2023-03-13T02:48:38.903Z,-2.26
2023-03-13T02:51:14.844Z,-2.28
2023-03-13T02:53:43.486Z,-2.29
2023-03-13T02:56:12.888Z,-2.29
2023-03-13T02:58:49.784Z,-2.29
2023-03-13T03:01:19.796Z,-2.30
2023-03-13T03:03:49.400Z,-2.32
2023-03-13T03:06:18.459Z,-2.33
2023-03-13T03:08:47.768Z,-2.35
2023-03-13T03:11:16.318Z,-2.39
2023-03-13T03:13:46.374Z,-2.41
2023-03-13T03:16:18.933Z,-2.44
2023-03-13T03:18:47.364Z,-2.47
2023-03-13T03:21:16.019Z,-2.48
2023-03-13T03:23:45.112Z,-2.49
2023-03-13T03:26:13.696Z,-2.52
2023-03-13T03:28:43.242Z,-2.54
2023-03-13T03:31:19.831Z,-2.57
2023-03-13T03:33:49.330Z,-2.62
2023-03-13T03:36:19.527Z,-2.68
2023-03-13T03:38:48.437Z,-2.73
2023-03-13T03:41:19.627Z,-2.77
2023-03-13T03:43:48.332Z,-2.79
2023-03-13T03:46:19.150Z,-2.80
2023-03-13T03:48:50.126Z,-2.80
2023-03-13T03:51:18.732Z,-2.79
2023-03-13T03:53:53.907Z,-2.77
2023-03-13T03:56:22.525Z,-2.75
2023-03-13T03:58:56.344Z,-2.73
2023-03-13T04:01:38.617Z,-2.72
2023-03-13T04:04:07.585Z,-2.74
2023-03-13T04:06:37.055Z,-2.75
2023-03-13T04:09:07.213Z,-2.77
2023-03-13T04:11:41.331Z,-2.79
2023-03-13T04:14:13.167Z,-2.79
2023-03-13T04:16:41.763Z,-2.79
2023-03-13T04:19:11.547Z,-2.79
2023-03-13T04:21:40.582Z,-2.79
2023-03-13T04:24:13.363Z,-2.78
2023-03-13T04:26:45.223Z,-2.77
2023-03-13T04:29:13.913Z,-2.75
2023-03-13T04:31:57.838Z,-2.73
2023-03-13T04:34:36.080Z,-2.70
2023-03-13T04:37:30.942Z,-2.64
2023-03-13T04:40:19.797Z,-2.57
2023-03-13T04:43:08.220Z,-2.50
2023-03-13T04:45:59.516Z,-2.41
2023-03-13T04:48:47.397Z,-2.35
2023-03-13T04:51:54.874Z,-2.28
2023-03-13T04:54:56.342Z,-2.24
2023-03-13T04:57:59.471Z,-2.17
2023-03-13T05:01:04.701Z,-2.08
2023-03-13T05:03:58.049Z,-1.99
2023-03-13T05:06:44.482Z,-1.88
2023-03-13T05:09:34.284Z,-1.75
2023-03-13T05:12:21.819Z,-1.63
2023-03-13T05:15:06.329Z,-1.50
2023-03-13T05:17:48.681Z,-1.38
2023-03-13T05:20:40.486Z,-1.27
2023-03-13T05:23:43.585Z,-1.16
2023-03-13T05:26:38.381Z,-1.06
2023-03-13T05:29:27.493Z,-0.93
2023-03-13T05:32:10.846Z,-0.82
2023-03-13T05:35:05.760Z,-0.72
2023-03-13T05:37:40.188Z,-0.62
2023-03-13T05:40:19.139Z,-0.52
2023-03-13T05:43:16.912Z,-0.43
2023-03-13T05:46:05.747Z,-0.32
2023-03-13T05:48:50.299Z,-0.22
2023-03-13T05:51:42.506Z,-0.09
2023-03-13T05:54:41.952Z,0.02
2023-03-13T05:57:32.811Z,0.12
2023-03-13T06:00:19.372Z,0.27
2023-03-13T06:02:59.925Z,0.44
2023-03-13T06:05:36.627Z,0.57
2023-03-13T06:08:09.065Z,0.70
2023-03-13T06:10:38.060Z,0.78
2023-03-13T06:13:19.082Z,0.84
2023-03-13T06:15:56.850Z,0.96
2023-03-13T06:18:45.817Z,1.12
2023-03-13T06:21:14.309Z,1.25
2023-03-13T06:23:47.380Z,1.34
2023-03-13T06:26:16.576Z,1.45
2023-03-13T06:28:46.110Z,1.53
2023-03-13T06:31:15.169Z,1.59
2023-03-13T06:33:43.768Z,1.66
2023-03-13T06:36:12.487Z,1.68
2023-03-13T06:38:41.109Z,1.69
2023-03-13T06:41:11.554Z,1.66
2023-03-13T06:43:42.871Z,1.68
2023-03-13T06:46:19.833Z,1.75
2023-03-13T06:48:48.815Z,1.80
2023-03-13T06:51:18.002Z,1.86
2023-03-13T06:53:47.623Z,1.96
2023-03-13T06:56:16.134Z,2.08
2023-03-13T06:58:49.308Z,2.16
2023-03-13T07:01:18.383Z,2.26
2023-03-13T07:03:47.933Z,2.34
2023-03-13T07:06:16.763Z,2.43
2023-03-13T07:08:45.487Z,2.56
2023-03-13T07:11:15.870Z,2.72
2023-03-13T07:13:44.495Z,2.83
2023-03-13T07:16:13.806Z,2.90
2023-03-13T07:18:42.718Z,2.93
2023-03-13T07:21:11.506Z,2.82
2023-03-13T07:23:40.239Z,2.82
2023-03-13T07:26:12.088Z,2.83
2023-03-13T07:28:41.207Z,2.83
2023-03-13T07:31:18.121Z,2.90
2023-03-13T07:33:47.405Z,2.90
2023-03-13T07:36:16.334Z,2.91
2023-03-13T07:38:49.046Z,3.03
2023-03-13T07:41:17.911Z,3.18
2023-03-13T07:43:46.867Z,3.26
2023-03-13T07:46:16.386Z,3.19
2023-03-13T07:48:45.020Z,3.21
2023-03-13T07:51:14.908Z,3.32
2023-03-13T07:53:44.597Z,3.51
2023-03-13T07:56:13.716Z,3.67
2023-03-13T07:58:42.367Z,3.80
2023-03-13T08:01:14.461Z,3.91
2023-03-13T08:03:44.516Z,4.06
2023-03-13T08:06:13.935Z,4.14
2023-03-13T08:08:43.403Z,4.26
2023-03-13T08:11:12.034Z,4.37
2023-03-13T08:13:42.873Z,4.46
2023-03-13T08:16:17.853Z,4.54
2023-03-13T08:18:47.353Z,4.58
2023-03-13T08:21:21.087Z,4.68
2023-03-13T08:23:54.734Z,4.69
2023-03-13T08:26:24.701Z,4.68
2023-03-13T08:28:57.414Z,4.71
2023-03-13T08:31:36.777Z,4.78
2023-03-13T08:57:37.386Z,5.33
2023-03-13T09:00:10.236Z,5.58
2023-03-13T09:02:38.909Z,5.67
2023-03-13T09:05:07.960Z,5.82
2023-03-13T09:07:36.481Z,5.84
2023-03-13T09:10:06.090Z,5.88
2023-03-13T09:12:37.761Z,5.87
2023-03-13T09:15:15.059Z,5.94
2023-03-13T09:17:45.405Z,5.99
2023-03-13T09:20:14.038Z,6.06
2023-03-13T09:22:43.705Z,6.06
2023-03-13T09:25:13.196Z,5.96
2023-03-13T09:27:50.154Z,6.05
2023-03-13T09:30:19.507Z,6.16
2023-03-13T09:32:48.368Z,6.21
2023-03-13T09:35:17.730Z,6.28
2023-03-13T09:37:46.517Z,6.37
2023-03-13T09:40:16.385Z,6.54
2023-03-13T09:42:54.173Z,6.62
2023-03-13T09:45:34.754Z,6.67
2023-03-13T09:48:19.019Z,6.73
2023-03-13T09:50:52.053Z,6.69
2023-03-13T09:53:39.357Z,6.73
2023-03-13T09:56:21.262Z,6.88
2023-03-13T09:58:54.439Z,7.01
2023-03-13T10:01:27.154Z,7.03
2023-03-13T10:03:59.444Z,6.99
2023-03-13T10:06:28.259Z,7.04
2023-03-13T10:09:01.727Z,7.17
2023-03-13T10:11:37.742Z,7.36
2023-03-13T10:14:15.649Z,7.38
2023-03-13T10:16:47.523Z,7.30
2023-03-13T10:19:17.652Z,7.34
2023-03-13T10:21:49.241Z,7.44
2023-03-13T10:24:23.310Z,7.49
2023-03-13T10:26:52.340Z,7.57
2023-03-13T10:29:25.220Z,7.59
2023-03-13T10:32:01.750Z,7.61
2023-03-13T10:34:51.641Z,7.76
2023-03-13T10:37:22.978Z,7.81
2023-03-13T10:39:53.510Z,7.89
2023-03-13T10:42:27.247Z,7.95
2023-03-13T10:45:04.960Z,8.02
2023-03-13T10:47:35.341Z,8.08
2023-03-13T10:50:04.310Z,8.00
2023-03-13T10:52:47.993Z,8.06
2023-03-13T10:55:21.765Z,8.05
2023-03-13T10:58:04.471Z,8.01
2023-03-13T11:00:38.868Z,8.05
2023-03-13T11:03:20.489Z,8.08
2023-03-13T11:05:57.031Z,8.05
2023-03-13T11:08:27.322Z,7.95
2023-03-13T11:10:58.799Z,7.98
2023-03-13T11:13:41.276Z,7.92
2023-03-13T11:16:31.625Z,7.84
2023-03-13T11:19:19.762Z,8.04
2023-03-13T11:22:07.399Z,8.22
2023-03-13T11:24:47.533Z,8.32
2023-03-13T11:27:41.364Z,8.26
2023-03-13T11:30:44.011Z,8.35
2023-03-13T11:33:17.656Z,8.42
2023-03-13T11:36:08.933Z,8.55
2023-03-13T11:39:20.623Z,8.46
2023-03-13T11:41:52.724Z,8.35
2023-03-13T11:44:30.351Z,8.46
2023-03-13T11:47:10.739Z,8.61
2023-03-13T11:49:51.505Z,8.75
2023-03-13T11:52:45.407Z,8.88
2023-03-13T11:55:36.799Z,8.99
2023-03-13T11:58:38.233Z,9.03
2023-03-13T12:01:20.269Z,9.09
2023-03-13T12:04:04.269Z,9.17
2023-03-13T12:07:04.265Z,9.21
2023-03-13T12:09:43.741Z,9.31
2023-03-13T12:12:22.795Z,9.41
2023-03-13T12:15:05.991Z,9.44
2023-03-13T12:17:42.349Z,9.39
2023-03-13T12:20:19.953Z,9.27
2023-03-13T12:22:50.727Z,9.26
2023-03-13T12:25:22.213Z,9.32
2023-03-13T12:27:53.313Z,9.35
2023-03-13T12:30:36.587Z,9.34
2023-03-13T12:33:21.831Z,9.31
2023-03-13T12:36:17.613Z,9.14
2023-03-13T12:39:06.052Z,9.04
2023-03-13T12:41:42.163Z,9.09
2023-03-13T12:44:19.085Z,9.24
2023-03-13T12:46:54.855Z,9.23
2023-03-13T12:49:42.304Z,9.19
2023-03-13T12:52:35.950Z,9.16
2023-03-13T12:55:42.270Z,9.24
2023-03-13T12:58:16.398Z,9.35
2023-03-13T13:00:46.263Z,9.46
2023-03-13T13:03:30.243Z,9.67
2023-03-13T13:06:00.176Z,9.73
2023-03-13T13:08:41.459Z,9.66
2023-03-13T13:11:37.829Z,9.73
2023-03-13T13:14:17.271Z,9.90
2023-03-13T13:16:52.230Z,10.08
2023-03-13T13:19:23.631Z,10.27
2023-03-13T13:22:29.927Z,10.34
2023-03-13T13:24:59.900Z,10.26
2023-03-13T13:27:34.689Z,10.42
2023-03-13T13:30:19.889Z,10.66
2023-03-13T13:32:51.946Z,10.76
2023-03-13T13:35:34.720Z,10.92
2023-03-13T13:38:18.703Z,11.01
2023-03-13T13:41:10.211Z,10.99
2023-03-13T13:43:46.075Z,11.17
2023-03-13T13:46:28.916Z,11.29
2023-03-13T13:49:07.908Z,11.44
2023-03-13T13:51:40.918Z,11.40
2023-03-13T13:54:19.766Z,11.48
2023-03-13T13:56:50.155Z,11.57
2023-03-13T13:59:23.345Z,11.60
2023-03-13T14:02:11.073Z,11.69
2023-03-13T14:04:50.661Z,11.91
2023-03-13T14:07:24.577Z,12.17
2023-03-13T14:10:27.429Z,12.12
2023-03-13T14:12:58.275Z,12.16
2023-03-13T14:15:28.609Z,12.36
2023-03-13T14:18:00.705Z,12.58
2023-03-13T14:20:37.221Z,12.62
2023-03-13T14:23:10.044Z,12.49
2023-03-13T14:25:50.308Z,12.42
2023-03-13T14:28:24.626Z,12.45
2023-03-13T14:30:55.652Z,12.36
2023-03-13T14:33:27.077Z,12.38
2023-03-13T14:35:58.279Z,12.43
2023-03-13T14:38:33.239Z,12.20
2023-03-13T14:41:04.942Z,12.08
2023-03-13T14:43:36.938Z,12.18
2023-03-13T14:46:21.374Z,12.32
2023-03-13T14:48:50.340Z,12.39
2023-03-13T14:51:29.351Z,12.29
2023-03-13T14:54:02.060Z,12.37
2023-03-13T14:56:34.776Z,12.32
2023-03-13T14:59:16.502Z,12.27
2023-03-13T15:01:46.336Z,12.27
2023-03-13T15:04:15.390Z,12.29
2023-03-13T15:06:44.338Z,12.29
2023-03-13T15:09:18.702Z,12.25
2023-03-13T15:11:55.531Z,12.19
2023-03-13T15:14:44.457Z,12.04
2023-03-13T15:17:20.621Z,11.75
2023-03-13T15:19:57.242Z,11.50
2023-03-13T15:22:31.178Z,11.00
2023-03-13T15:25:06.368Z,10.39
2023-03-13T15:27:37.249Z,9.82
2023-03-13T15:30:11.348Z,9.27
2023-03-13T15:32:42.980Z,8.72
2023-03-13T15:35:25.405Z,8.22
2023-03-13T15:37:54.625Z,7.69
2023-03-13T15:40:24.824Z,7.24
2023-03-13T15:42:54.712Z,6.83
2023-03-13T15:45:23.520Z,6.39
2023-03-13T15:47:52.448Z,5.99
2023-03-13T15:50:22.896Z,5.69
2023-03-13T15:52:52.032Z,5.40
2023-03-13T15:55:23.245Z,5.16
2023-03-13T15:57:52.440Z,4.98
2023-03-13T16:00:27.480Z,4.79
2023-03-13T16:02:56.156Z,4.58
2023-03-13T16:05:25.216Z,4.34
2023-03-13T16:07:55.934Z,4.13
2023-03-13T16:10:27.442Z,3.96
2023-03-13T16:13:00.366Z,3.77
2023-03-13T16:15:31.588Z,3.61
2023-03-13T16:18:00.357Z,3.47
2023-03-13T16:20:30.540Z,3.35
2023-03-13T16:23:03.920Z,3.24
2023-03-13T16:25:33.070Z,3.12
2023-03-13T16:28:01.947Z,3.03
2023-03-13T16:30:32.899Z,2.93
2023-03-13T16:33:03.667Z,2.81
2023-03-13T16:35:33.519Z,2.69
2023-03-13T16:38:02.922Z,2.58
2023-03-13T16:40:33.359Z,2.46
2023-03-13T16:43:01.925Z,2.32
2023-03-13T16:45:33.322Z,2.21
2023-03-13T16:48:01.776Z,2.14
2023-03-13T16:50:36.055Z,2.02
2023-03-13T16:53:05.043Z,1.85
2023-03-13T16:55:37.025Z,1.71
2023-03-13T16:58:06.107Z,1.63
2023-03-13T17:00:34.878Z,1.56
2023-03-13T17:03:03.711Z,1.45
2023-03-13T17:05:33.141Z,1.33
2023-03-13T17:08:01.640Z,1.23
2023-03-13T17:10:32.171Z,1.15
2023-03-13T17:13:01.459Z,1.05
2023-03-13T17:15:33.077Z,0.96
2023-03-13T17:18:02.674Z,0.87
2023-03-13T17:20:31.951Z,0.80
2023-03-13T17:23:01.499Z,0.75
2023-03-13T17:25:31.934Z,0.72
2023-03-13T17:28:02.765Z,0.70
2023-03-13T17:30:31.833Z,0.66
2023-03-13T17:33:01.080Z,0.61
2023-03-13T17:35:34.232Z,0.59
2023-03-13T17:38:02.678Z,0.56
2023-03-13T17:40:37.403Z,0.57
2023-03-13T17:43:06.230Z,0.53
2023-03-13T17:45:37.061Z,0.49
2023-03-13T17:48:09.302Z,0.43
2023-03-13T17:50:39.792Z,0.35
2023-03-13T17:53:10.029Z,0.26
2023-03-13T17:55:39.248Z,0.16
2023-03-13T17:58:09.342Z,0.08
2023-03-13T18:00:44.981Z,0.00
2023-03-13T18:03:13.729Z,-0.07
2023-03-13T18:05:42.551Z,-0.13
2023-03-13T18:08:12.095Z,-0.16
2023-03-13T18:10:41.374Z,-0.16
2023-03-13T18:13:12.118Z,-0.17
2023-03-13T18:15:40.929Z,-0.19
2023-03-13T18:18:15.520Z,-0.21
2023-03-13T18:20:45.728Z,-0.23
2023-03-13T18:23:14.319Z,-0.24
2023-03-13T18:25:43.270Z,-0.26
2023-03-13T18:28:12.676Z,-0.28
2023-03-13T18:30:43.813Z,-0.29
2023-03-13T18:33:13.119Z,-0.31
2023-03-13T18:35:42.053Z,-0.33
2023-03-13T18:38:14.183Z,-0.34
2023-03-13T18:40:42.864Z,-0.35
2023-03-13T18:43:13.925Z,-0.35
2023-03-13T18:45:42.589Z,-0.35
2023-03-13T18:48:11.533Z,-0.36
2023-03-13T18:50:40.470Z,-0.38
2023-03-13T18:53:09.226Z,-0.41
2023-03-13T18:55:39.206Z,-0.44
2023-03-13T18:58:11.042Z,-0.47
2023-03-13T19:00:39.908Z,-0.46
2023-03-13T19:03:09.019Z,-0.46
2023-03-13T19:05:37.881Z,-0.47
2023-03-13T19:08:11.400Z,-0.47
2023-03-13T19:10:41.444Z,-0.47
2023-03-13T19:13:15.818Z,-0.47
2023-03-13T19:15:45.233Z,-0.48
2023-03-13T19:18:14.183Z,-0.50
2023-03-13T19:20:50.130Z,-0.52
2023-03-13T19:23:18.804Z,-0.54
2023-03-13T19:25:47.391Z,-0.57
2023-03-13T19:28:16.069Z,-0.59
2023-03-13T19:30:47.434Z,-0.61
2023-03-13T19:33:16.307Z,-0.64
2023-03-13T19:35:45.146Z,-0.65
2023-03-13T19:38:14.260Z,-0.68
2023-03-13T19:40:43.563Z,-0.71
2023-03-13T19:43:12.185Z,-0.74
2023-03-13T19:45:43.411Z,-0.78
2023-03-13T19:48:12.212Z,-0.81
2023-03-13T19:50:41.002Z,-0.83
2023-03-13T19:53:09.669Z,-0.86
2023-03-13T19:55:38.405Z,-0.87
2023-03-13T19:58:07.864Z,-0.90
2023-03-13T20:00:37.692Z,-0.92
2023-03-13T20:03:06.870Z,-0.96
2023-03-13T20:05:36.502Z,-0.99
2023-03-13T20:08:05.395Z,-1.03
2023-03-13T20:10:34.538Z,-1.06
2023-03-13T20:13:04.612Z,-1.09
2023-03-13T20:15:33.388Z,-1.12
2023-03-13T20:18:02.571Z,-1.17
2023-03-13T20:20:31.530Z,-1.22
2023-03-13T20:23:00.745Z,-1.26
2023-03-13T20:25:29.759Z,-1.30
2023-03-13T20:27:58.950Z,-1.34
2023-03-13T20:30:27.890Z,-1.37
2023-03-13T20:32:59.656Z,-1.40
2023-03-13T20:35:30.987Z,-1.42
2023-03-13T20:38:02.022Z,-1.44
2023-03-13T20:40:32.624Z,-1.44
2023-03-13T20:43:02.018Z,-1.44
2023-03-13T20:45:34.581Z,-1.47
2023-03-13T20:48:03.767Z,-1.48
2023-03-13T20:50:32.503Z,-1.50
2023-03-13T20:53:01.216Z,-1.51
2023-03-13T20:55:33.003Z,-1.52
2023-03-13T20:58:01.680Z,-1.53
2023-03-13T21:00:30.416Z,-1.55
2023-03-13T21:02:59.166Z,-1.56
2023-03-13T21:05:27.666Z,-1.57
2023-03-13T21:07:56.534Z,-1.57
2023-03-13T21:10:25.285Z,-1.56
2023-03-13T21:12:54.172Z,-1.55
2023-03-13T21:15:22.756Z,-1.55
2023-03-13T21:17:54.046Z,-1.55
2023-03-13T21:20:22.881Z,-1.56
2023-03-13T21:22:51.876Z,-1.57
2023-03-13T21:25:23.710Z,-1.56
2023-03-13T21:27:52.630Z,-1.56
2023-03-13T21:30:21.491Z,-1.55
2023-03-13T21:32:50.524Z,-1.54
2023-03-13T21:35:21.319Z,-1.54
2023-03-13T21:37:50.330Z,-1.55
2023-03-13T21:40:19.066Z,-1.55
2023-03-13T21:42:47.908Z,-1.54
2023-03-13T21:45:16.503Z,-1.53
2023-03-13T21:47:45.165Z,-1.53
2023-03-13T21:50:14.100Z,-1.53
2023-03-13T21:52:42.823Z,-1.55
2023-03-13T21:55:12.950Z,-1.57
2023-03-13T21:57:42.211Z,-1.58
2023-03-13T22:00:14.348Z,-1.58
2023-03-13T22:02:44.329Z,-1.57
2023-03-13T22:05:17.914Z,-1.57
2023-03-13T22:07:47.704Z,-1.57
2023-03-13T22:10:16.699Z,-1.60
2023-03-13T22:12:55.318Z,-1.63
2023-03-13T22:15:23.966Z,-1.65
2023-03-13T22:17:52.508Z,-1.69
2023-03-13T22:20:21.093Z,-1.71
2023-03-13T22:22:49.723Z,-1.73
2023-03-13T22:25:18.837Z,-1.75
2023-03-13T22:27:48.357Z,-1.79
2023-03-13T22:30:17.209Z,-1.82
2023-03-13T22:32:48.218Z,-1.84
2023-03-13T22:35:17.135Z,-1.85
2023-03-13T22:37:48.473Z,-1.85
2023-03-13T22:40:19.160Z,-1.86
2023-03-13T22:42:47.727Z,-1.88
2023-03-13T22:45:16.437Z,-1.90
2023-03-13T22:47:46.035Z,-1.93
2023-03-13T22:50:14.603Z,-1.94
2023-03-13T22:52:43.673Z,-1.94
2023-03-13T22:55:13.437Z,-1.94
2023-03-13T22:57:43.711Z,-1.94
2023-03-13T23:00:13.356Z,-1.98
2023-03-13T23:02:42.005Z,-2.01
2023-03-13T23:05:10.624Z,-2.02
2023-03-13T23:07:45.547Z,-2.03
2023-03-13T23:10:17.639Z,-2.03
2023-03-13T23:12:46.153Z,-2.04
2023-03-13T23:15:14.898Z,-2.05
2023-03-13T23:17:43.770Z,-2.05
2023-03-13T23:20:16.417Z,-2.07
2023-03-13T23:22:46.269Z,-2.10
2023-03-13T23:25:14.950Z,-2.12
2023-03-13T23:27:43.567Z,-2.12
2023-03-13T23:30:14.058Z,-2.10
2023-03-13T23:32:44.514Z,-2.09
2023-03-13T23:35:13.476Z,-2.08
2023-03-13T23:37:42.033Z,-2.08
2023-03-13T23:40:12.333Z,-2.10
2023-03-13T23:42:45.528Z,-2.11
2023-03-13T23:45:18.641Z,-2.14
2023-03-13T23:47:48.203Z,-2.16
2023-03-13T23:50:16.796Z,-2.18
2023-03-13T23:52:46.838Z,-2.20
2023-03-13T23:55:15.535Z,-2.23
2023-03-13T23:57:50.785Z,-2.23
